createdAt,value
2023-05-24T00:01:52.825Z,2.38
2023-05-24T00:04:42.063Z,3.88
2023-05-24T00:07:12.738Z,2.85
2023-05-24T00:09:43.335Z,3.15
2023-05-24T00:12:13.808Z,2.53
2023-05-24T00:14:44.358Z,3.47
2023-05-24T00:17:14.763Z,3.28
2023-05-24T00:19:45.226Z,3.10
2023-05-24T00:22:15.682Z,5.32
2023-05-24T00:24:46.124Z,5.63
2023-05-24T00:27:17.446Z,5.82
2023-05-24T00:29:48.094Z,4.72
2023-05-24T00:32:20.169Z,5.82
2023-05-24T00:34:54.312Z,5.55
2023-05-24T00:37:25.122Z,4.90
2023-05-24T00:39:55.751Z,6.15
2023-05-24T00:42:26.402Z,7.93
2023-05-24T00:44:56.990Z,5.30
2023-05-24T00:47:27.500Z,5.35
2023-05-24T00:49:58.614Z,10.02
2023-05-24T00:52:29.100Z,10.60
2023-05-24T00:55:00.107Z,10.63
2023-05-24T00:57:31.504Z,8.63
2023-05-24T01:00:02.592Z,7.05
2023-05-24T01:02:34.177Z,7.18
2023-05-24T01:05:05.951Z,8.20
2023-05-24T01:07:48.305Z,15.17
2023-05-24T01:13:28.515Z,8.68
2023-05-24T01:16:07.348Z,8.75
2023-05-24T01:18:43.704Z,11.20
2023-05-24T01:21:16.025Z,4.93
2023-05-24T01:24:07.385Z,6.65
2023-05-24T01:26:45.221Z,58.65
2023-05-24T01:29:16.813Z,22.08
2023-05-24T01:31:47.667Z,14.27
2023-05-24T01:34:20.541Z,12.90
2023-05-24T01:36:51.651Z,21.23
2023-05-24T01:39:23.815Z,10.98
2023-05-24T01:42:25.624Z,9.80
2023-05-24T01:45:01.933Z,7.18
2023-05-24T01:48:13.685Z,10.95
2023-05-24T01:50:55.335Z,9.48
2023-05-24T01:53:34.280Z,11.50
2023-05-24T01:56:07.789Z,10.90
2023-05-24T01:58:40.809Z,7.60
2023-05-24T02:01:12.465Z,5.22
2023-05-24T02:03:43.404Z,4.40
2023-05-24T02:06:13.824Z,4.57
2023-05-24T02:08:44.278Z,4.20
2023-05-24T02:11:14.692Z,5.50
2023-05-24T02:13:45.386Z,2.72
2023-05-24T02:16:15.951Z,3.47
2023-05-24T02:19:04.321Z,2.30
2023-05-24T02:21:53.048Z,3.28
2023-05-24T02:24:23.574Z,2.22
2023-05-24T02:26:54.084Z,3.40
2023-05-24T02:29:25.282Z,2.78
2023-05-24T02:31:58.213Z,1.67
2023-05-24T02:34:29.026Z,1.92
2023-05-24T02:36:59.438Z,1.48
2023-05-24T02:39:30.194Z,2.72
2023-05-24T02:42:00.873Z,2.80
2023-05-24T02:44:31.338Z,1.98
2023-05-24T02:47:01.937Z,1.45
2023-05-24T02:49:32.453Z,2.15
2023-05-24T02:52:02.876Z,2.53
2023-05-24T02:54:33.184Z,1.50
2023-05-24T02:57:04.354Z,2.00
2023-05-24T02:59:36.090Z,2.40
2023-05-24T03:02:06.855Z,1.42
2023-05-24T03:04:37.370Z,1.60
2023-05-24T03:07:08.815Z,1.50
2023-05-24T03:09:39.281Z,1.45
2023-05-24T03:12:27.835Z,2.63
2023-05-24T03:14:58.497Z,2.83
2023-05-24T03:17:29.043Z,2.85
2023-05-24T03:19:59.593Z,2.10
2023-05-24T03:22:48.270Z,1.48
2023-05-24T03:25:18.794Z,1.77
2023-05-24T03:27:49.951Z,1.83
2023-05-24T03:30:21.895Z,1.48
2023-05-24T03:32:56.667Z,2.25
2023-05-24T03:35:27.293Z,1.60
2023-05-24T03:37:59.357Z,1.20
2023-05-24T03:40:34.074Z,1.33
2023-05-24T03:43:16.110Z,1.33
2023-05-24T03:45:53.704Z,1.30
2023-05-24T03:48:24.459Z,1.38
2023-05-24T03:50:55.490Z,1.40
2023-05-24T03:53:25.938Z,1.92
2023-05-24T03:55:57.616Z,2.10
2023-05-24T03:58:28.161Z,4.25
2023-05-24T04:00:58.739Z,3.78
2023-05-24T04:03:30.052Z,3.13
2023-05-24T04:06:00.570Z,5.30
2023-05-24T04:08:30.976Z,70.03
2023-05-24T04:11:01.446Z,41.95
2023-05-24T04:13:32.344Z,46.28
2023-05-24T04:16:02.890Z,51.25
2023-05-24T04:18:33.583Z,61.72
2023-05-24T04:21:04.134Z,71.38
2023-05-24T04:23:35.130Z,60.63
2023-05-24T04:26:05.596Z,95.45
2023-05-24T04:28:37.458Z,58.42
2023-05-24T04:31:11.543Z,46.27
2023-05-24T04:33:43.286Z,29.27
2023-05-24T04:36:14.881Z,32.13
2023-05-24T04:38:47.303Z,15.45
2023-05-24T04:41:17.829Z,14.10
2023-05-24T04:43:48.604Z,28.38
2023-05-24T04:46:18.953Z,18.13
2023-05-24T04:48:49.843Z,76.25
2023-05-24T04:51:20.601Z,29.00
2023-05-24T04:53:51.056Z,26.70
2023-05-24T04:56:21.655Z,15.02
2023-05-24T04:58:52.042Z,15.35
2023-05-24T05:01:23.216Z,40.03
2023-05-24T05:03:53.866Z,27.77
2023-05-24T05:06:24.431Z,20.27
2023-05-24T05:08:55.158Z,18.33
2023-05-24T05:11:25.632Z,14.68
2023-05-24T05:13:56.350Z,10.68
2023-05-24T05:16:26.918Z,15.48
2023-05-24T05:18:57.506Z,22.13
2023-05-24T05:21:28.069Z,13.55
2023-05-24T05:23:58.608Z,86.78
2023-05-24T05:26:32.612Z,50.42
2023-05-24T05:29:03.129Z,46.90
2023-05-24T05:31:33.606Z,39.88
2023-05-24T05:34:04.250Z,35.40
2023-05-24T05:36:34.853Z,192.75
2023-05-24T05:39:05.165Z,24.52
2023-05-24T05:41:35.547Z,87.82
2023-05-24T05:44:06.019Z,177.10
2023-05-24T05:46:36.519Z,119.10
2023-05-24T05:49:08.444Z,117.10
2023-05-24T05:51:40.351Z,90.45
2023-05-24T05:54:15.863Z,389.93
2023-05-24T05:56:49.482Z,159.82
2023-05-24T05:59:21.410Z,27.25
2023-05-24T06:01:52.438Z,22.92
2023-05-24T06:04:22.754Z,37.47
2023-05-24T06:06:53.666Z,18.67
2023-05-24T06:09:24.200Z,20.75
2023-05-24T06:11:54.631Z,20.65
2023-05-24T06:14:26.642Z,13.25
2023-05-24T06:16:58.090Z,13.93
2023-05-24T06:19:30.539Z,12.57
2023-05-24T06:22:01.817Z,16.77
2023-05-24T06:24:32.409Z,14.95
2023-05-24T06:27:05.265Z,15.50
2023-05-24T06:29:36.008Z,13.30
2023-05-24T06:32:07.123Z,17.63
2023-05-24T06:34:37.688Z,10.82
2023-05-24T06:37:11.804Z,15.00
2023-05-24T06:39:42.705Z,10.02
2023-05-24T06:42:13.165Z,15.23
2023-05-24T06:44:48.373Z,11.57
2023-05-24T06:47:19.150Z,24.25
2023-05-24T06:49:50.488Z,16.48
2023-05-24T06:52:20.902Z,15.15
2023-05-24T06:54:52.393Z,18.30
2023-05-24T06:57:23.274Z,14.60
2023-05-24T06:59:53.712Z,17.92
2023-05-24T07:02:28.122Z,16.92
2023-05-24T07:04:58.717Z,14.57
2023-05-24T07:07:29.150Z,13.95
2023-05-24T07:09:59.729Z,8.07
2023-05-24T07:12:30.194Z,11.27
2023-05-24T07:15:00.772Z,11.68
2023-05-24T07:17:31.284Z,11.05
2023-05-24T07:20:03.811Z,11.82
2023-05-24T07:25:04.382Z,12.65
2023-05-24T07:27:34.838Z,9.10
2023-05-24T07:30:09.518Z,11.00
2023-05-24T07:32:47.892Z,8.68
2023-05-24T07:35:18.487Z,7.55
2023-05-24T07:37:49.393Z,8.32
2023-05-24T07:40:19.926Z,9.15
2023-05-24T07:42:50.612Z,10.15
2023-05-24T07:45:21.228Z,9.70
2023-05-24T07:47:53.212Z,8.75
2023-05-24T07:50:24.812Z,7.55
2023-05-24T07:52:56.150Z,11.07
2023-05-24T07:55:26.605Z,8.05
2023-05-24T07:57:58.143Z,10.60
2023-05-24T08:00:29.311Z,8.67
2023-05-24T08:02:59.804Z,9.27
2023-05-24T08:05:30.505Z,12.32
2023-05-24T08:08:00.989Z,8.43
2023-05-24T08:10:31.531Z,6.80
2023-05-24T08:13:02.188Z,8.00
2023-05-24T08:15:32.747Z,8.73
2023-05-24T08:18:03.200Z,5.43
2023-05-24T08:20:37.574Z,8.88
2023-05-24T08:23:26.118Z,6.35
2023-05-24T08:25:56.698Z,7.95
2023-05-24T08:28:27.147Z,6.43
2023-05-24T08:30:58.857Z,9.18
2023-05-24T08:33:30.607Z,7.15
2023-05-24T08:36:01.067Z,8.07
2023-05-24T08:38:31.542Z,7.38
2023-05-24T08:41:02.358Z,7.85
2023-05-24T08:43:33.012Z,7.07
2023-05-24T08:46:05.266Z,8.13
2023-05-24T08:48:55.060Z,6.60
2023-05-24T08:51:26.372Z,7.50
2023-05-24T08:53:57.730Z,9.30
2023-05-24T08:56:30.492Z,5.63
2023-05-24T08:59:00.878Z,7.05
2023-05-24T09:01:34.620Z,6.38
2023-05-24T09:04:08.325Z,8.32
2023-05-24T09:06:39.228Z,6.15
2023-05-24T09:09:10.972Z,6.50
2023-05-24T09:11:44.875Z,7.30
2023-05-24T09:14:16.515Z,7.72
2023-05-24T09:16:47.127Z,6.93
2023-05-24T09:19:18.561Z,5.95
2023-05-24T09:21:51.013Z,7.72
2023-05-24T09:24:21.881Z,10.43
2023-05-24T09:26:55.559Z,7.22
2023-05-24T09:29:26.226Z,6.75
2023-05-24T09:31:59.141Z,7.03
2023-05-24T09:34:29.672Z,6.22
2023-05-24T09:37:00.181Z,6.25
2023-05-24T09:39:31.037Z,8.32
2023-05-24T09:42:01.273Z,9.98
2023-05-24T09:44:31.670Z,5.93
2023-05-24T09:47:09.119Z,5.85
2023-05-24T09:49:40.327Z,7.05
2023-05-24T09:52:10.810Z,5.93
2023-05-24T09:54:43.259Z,6.68
2023-05-24T09:57:13.758Z,5.88
2023-05-24T09:59:45.765Z,6.68
2023-05-24T10:02:17.660Z,5.60
2023-05-24T10:04:48.664Z,8.32
2023-05-24T10:07:20.016Z,7.60
2023-05-24T10:09:51.673Z,5.35
2023-05-24T10:12:24.698Z,5.95
2023-05-24T10:14:59.004Z,5.10
2023-05-24T10:17:30.400Z,6.18
2023-05-24T10:20:00.910Z,5.47
2023-05-24T10:22:32.057Z,6.82
2023-05-24T10:25:03.103Z,6.10
2023-05-24T10:27:34.895Z,6.35
2023-05-24T10:30:23.685Z,5.97
2023-05-24T10:32:55.977Z,6.28
2023-05-24T10:35:28.963Z,5.82
2023-05-24T10:37:59.614Z,7.65
2023-05-24T10:40:30.229Z,7.13
2023-05-24T10:43:00.800Z,6.38
2023-05-24T10:45:32.781Z,7.10
2023-05-24T10:48:32.013Z,5.35
2023-05-24T10:51:23.800Z,6.40
2023-05-24T10:53:54.180Z,5.97
2023-05-24T10:56:25.274Z,4.97
2023-05-24T10:59:01.282Z,7.75
2023-05-24T11:01:33.594Z,7.28
2023-05-24T11:04:18.397Z,7.03
2023-05-24T11:07:19.651Z,6.07
2023-05-24T11:09:58.478Z,6.10
2023-05-24T11:12:40.084Z,6.53
2023-05-24T11:15:14.118Z,5.43
2023-05-24T11:18:14.342Z,5.47
2023-05-24T11:21:05.487Z,7.05
2023-05-24T11:23:38.163Z,5.40
2023-05-24T11:26:09.383Z,5.53
2023-05-24T11:28:40.555Z,6.57
2023-05-24T11:31:11.546Z,6.47
2023-05-24T11:33:44.282Z,8.05
2023-05-24T11:36:14.872Z,6.00
2023-05-24T11:38:45.338Z,4.93
2023-05-24T11:41:15.948Z,6.13
2023-05-24T11:43:47.550Z,6.68
2023-05-24T11:46:21.897Z,8.93
2023-05-24T11:49:02.541Z,7.18
2023-05-24T11:51:34.742Z,5.38
2023-05-24T11:54:05.149Z,5.00
2023-05-24T11:56:35.541Z,6.63
2023-05-24T11:59:18.128Z,5.18
2023-05-24T12:01:48.726Z,5.38
2023-05-24T12:04:19.134Z,6.25
2023-05-24T12:06:49.824Z,7.80
2023-05-24T12:09:20.445Z,5.38
2023-05-24T12:11:52.556Z,7.20
2023-05-24T12:16:58.903Z,5.60
2023-05-24T12:19:37.602Z,6.35
2023-05-24T12:22:09.642Z,7.25
2023-05-24T12:24:40.113Z,7.60
2023-05-24T12:27:11.652Z,7.55
2023-05-24T12:29:43.792Z,5.97
2023-05-24T12:32:15.096Z,7.18
2023-05-24T12:34:46.935Z,6.50
2023-05-24T12:37:17.679Z,6.53
2023-05-24T12:39:48.491Z,6.07
2023-05-24T12:42:18.865Z,6.43
2023-05-24T12:45:07.740Z,7.45
2023-05-24T12:47:38.691Z,5.22
2023-05-24T12:50:09.506Z,5.85
2023-05-24T12:52:40.301Z,7.20
2023-05-24T12:55:11.045Z,6.82
2023-05-24T12:57:42.306Z,6.00
2023-05-24T13:00:14.608Z,6.75
2023-05-24T13:02:45.286Z,6.20
2023-05-24T13:05:15.820Z,5.68
2023-05-24T13:07:47.402Z,6.53
2023-05-24T13:10:17.830Z,7.57
2023-05-24T13:12:48.930Z,6.32
2023-05-24T13:15:21.017Z,5.97
2023-05-24T13:17:51.529Z,6.43
2023-05-24T13:20:23.962Z,7.00
2023-05-24T13:22:55.125Z,6.47
2023-05-24T13:25:25.740Z,5.57
2023-05-24T13:27:56.101Z,5.97
2023-05-24T13:30:29.421Z,5.13
2023-05-24T13:33:01.025Z,7.80
2023-05-24T13:35:32.794Z,5.60
2023-05-24T13:38:03.092Z,5.90
2023-05-24T13:40:33.901Z,7.55
2023-05-24T13:43:05.411Z,5.20
2023-05-24T13:45:36.054Z,6.20
2023-05-24T13:48:07.096Z,5.32
2023-05-24T13:50:38.964Z,6.63
2023-05-24T13:53:10.446Z,5.15
2023-05-24T13:55:41.009Z,6.80
2023-05-24T13:58:12.070Z,6.90
2023-05-24T14:00:44.177Z,6.78
2023-05-24T14:03:16.241Z,5.72
2023-05-24T14:05:46.719Z,4.97
2023-05-24T14:08:17.573Z,4.70
2023-05-24T14:10:51.350Z,5.10
2023-05-24T14:14:04.721Z,5.30
2023-05-24T14:16:13.224Z,5.30
2023-05-24T14:18:44.729Z,5.00
2023-05-24T14:21:15.130Z,5.43
2023-05-24T14:24:03.597Z,5.68
2023-05-24T14:26:34.021Z,6.20
2023-05-24T14:29:04.650Z,7.60
2023-05-24T14:31:37.211Z,5.72
2023-05-24T14:34:07.741Z,6.13
2023-05-24T14:36:40.093Z,7.35
2023-05-24T14:41:40.253Z,6.13
2023-05-24T14:44:10.695Z,5.35
2023-05-24T14:46:43.204Z,6.50
2023-05-24T14:49:13.776Z,5.78
2023-05-24T14:51:44.246Z,5.78
2023-05-24T14:54:14.679Z,6.97
2023-05-24T14:56:45.171Z,7.30
2023-05-24T14:59:16.177Z,5.43
2023-05-24T15:01:46.695Z,6.22
2023-05-24T15:04:17.419Z,7.82
2023-05-24T15:06:47.997Z,6.32
2023-05-24T15:09:18.456Z,7.45
2023-05-24T15:11:49.216Z,7.53
2023-05-24T15:14:19.813Z,5.13
2023-05-24T15:16:51.154Z,6.65
2023-05-24T15:19:21.779Z,5.80
2023-05-24T15:21:52.375Z,13.80
2023-05-24T15:24:22.802Z,5.13
2023-05-24T15:26:53.844Z,7.20
2023-05-24T15:29:24.403Z,5.43
2023-05-24T15:31:54.979Z,5.30
2023-05-24T15:34:25.460Z,7.40
2023-05-24T15:36:56.026Z,6.30
2023-05-24T15:39:26.425Z,6.80
2023-05-24T15:41:57.065Z,6.30
2023-05-24T15:44:27.466Z,5.28
2023-05-24T15:46:58.053Z,6.03
2023-05-24T15:49:28.781Z,6.00
2023-05-24T15:52:04.179Z,6.32
2023-05-24T15:54:35.359Z,7.13
2023-05-24T15:57:05.771Z,5.75
2023-05-24T15:59:38.377Z,5.22
2023-05-24T16:02:10.034Z,4.72
2023-05-24T16:04:40.864Z,7.00
2023-05-24T16:07:11.506Z,7.60
2023-05-24T16:09:41.790Z,6.50
2023-05-24T16:12:12.446Z,5.57
2023-05-24T16:14:42.834Z,5.70
2023-05-24T16:17:13.580Z,4.57
2023-05-24T16:19:44.415Z,6.10
2023-05-24T16:22:14.800Z,5.50
2023-05-24T16:24:46.324Z,6.57
2023-05-24T16:27:16.964Z,5.43
2023-05-24T16:29:48.409Z,4.57
2023-05-24T16:32:18.843Z,7.22
2023-05-24T16:34:56.911Z,7.10
2023-05-24T16:37:27.778Z,4.97
2023-05-24T16:39:58.225Z,5.40
2023-05-24T16:42:28.580Z,5.53
2023-05-24T16:44:59.091Z,8.63
2023-05-24T16:47:30.296Z,8.10
2023-05-24T16:50:00.828Z,5.50
2023-05-24T16:52:31.423Z,4.97
2023-05-24T16:55:02.062Z,5.15
2023-05-24T16:57:50.759Z,6.10
2023-05-24T17:00:21.645Z,5.03
2023-05-24T17:02:52.191Z,5.55
2023-05-24T17:05:22.868Z,6.63
2023-05-24T17:07:53.374Z,5.40
2023-05-24T17:10:23.989Z,4.80
2023-05-24T17:12:54.848Z,5.45
2023-05-24T17:15:25.341Z,7.72
2023-05-24T17:17:57.706Z,5.30
2023-05-24T17:20:28.335Z,6.95
2023-05-24T17:22:58.913Z,5.63
2023-05-24T17:25:30.419Z,5.50
2023-05-24T17:28:00.815Z,6.03
2023-05-24T17:30:31.945Z,6.90
2023-05-24T17:33:02.581Z,7.00
2023-05-24T17:35:33.126Z,6.10
2023-05-24T17:38:03.550Z,5.57
2023-05-24T17:40:34.014Z,6.28
2023-05-24T17:43:05.563Z,5.40
2023-05-24T17:45:36.117Z,5.13
2023-05-24T17:48:06.790Z,5.10
2023-05-24T17:50:37.817Z,5.22
2023-05-24T17:53:13.195Z,7.78
2023-05-24T17:55:53.720Z,6.10
2023-05-24T17:58:24.214Z,6.53
2023-05-24T18:00:54.999Z,5.50
2023-05-24T18:03:25.898Z,5.30
2023-05-24T18:05:56.521Z,5.20
2023-05-24T18:08:27.071Z,6.28
2023-05-24T18:10:57.484Z,4.20
2023-05-24T18:13:29.619Z,5.47
2023-05-24T18:16:00.005Z,5.85
2023-05-24T18:18:31.263Z,5.18
2023-05-24T18:21:02.098Z,5.47
2023-05-24T18:23:35.577Z,5.05
2023-05-24T18:26:15.045Z,6.35
2023-05-24T18:28:45.760Z,4.95
2023-05-24T18:31:16.450Z,5.70
2023-05-24T18:33:47.117Z,4.43
2023-05-24T18:36:17.575Z,6.32
2023-05-24T18:38:48.892Z,5.97
2023-05-24T18:41:19.953Z,5.03
2023-05-24T18:43:50.564Z,4.85
2023-05-24T18:46:21.067Z,6.18
2023-05-24T18:48:51.610Z,6.30
2023-05-24T18:51:22.076Z,5.38
2023-05-24T18:53:53.280Z,4.57
2023-05-24T18:56:24.385Z,4.32
2023-05-24T18:58:55.800Z,5.57
2023-05-24T19:01:26.947Z,8.55
2023-05-24T19:03:57.663Z,4.65
2023-05-24T19:06:28.196Z,5.25
2023-05-24T19:08:58.694Z,6.85
2023-05-24T19:11:29.799Z,5.07
2023-05-24T19:14:00.202Z,4.57
2023-05-24T19:16:30.886Z,6.45
2023-05-24T19:19:01.707Z,6.28
2023-05-24T19:21:34.683Z,6.53
2023-05-24T19:24:05.125Z,5.20
2023-05-24T19:26:35.555Z,6.18
2023-05-24T19:29:06.166Z,7.00
2023-05-24T19:31:37.763Z,5.70
2023-05-24T19:34:08.248Z,6.50
2023-05-24T19:36:38.820Z,4.07
2023-05-24T19:39:09.376Z,4.93
2023-05-24T19:41:40.071Z,5.78
2023-05-24T19:44:10.979Z,6.15
2023-05-24T19:46:41.364Z,5.32
2023-05-24T19:49:13.664Z,4.82
2023-05-24T19:51:44.095Z,4.63
2023-05-24T19:54:15.257Z,4.53
2023-05-24T19:56:47.279Z,4.78
2023-05-24T19:59:17.743Z,5.65
2023-05-24T20:01:48.163Z,4.45
2023-05-24T20:04:19.025Z,4.68
2023-05-24T20:06:49.715Z,4.55
2023-05-24T20:09:20.360Z,7.03
2023-05-24T20:11:50.996Z,4.35
2023-05-24T20:14:21.477Z,4.15
2023-05-24T20:16:51.886Z,3.67
2023-05-24T20:19:23.695Z,3.10
2023-05-24T20:21:54.457Z,5.18
2023-05-24T20:24:24.946Z,4.57
2023-05-24T20:26:55.345Z,6.60
2023-05-24T20:29:25.734Z,4.32
2023-05-24T20:31:56.210Z,4.40
2023-05-24T20:34:26.672Z,5.03
2023-05-24T20:36:57.214Z,6.00
2023-05-24T20:39:27.867Z,2.90
2023-05-24T20:41:58.674Z,5.00
2023-05-24T20:44:29.230Z,2.85
2023-05-24T20:46:59.653Z,3.83
2023-05-24T20:49:30.173Z,3.42
2023-05-24T20:52:00.805Z,3.17
2023-05-24T20:54:32.513Z,2.85
2023-05-24T20:57:03.539Z,5.47
2023-05-24T20:59:33.953Z,3.72
2023-05-24T21:02:04.365Z,4.03
2023-05-24T21:04:34.867Z,3.88
2023-05-24T21:07:05.409Z,4.05
2023-05-24T21:09:36.133Z,3.95
2023-05-24T21:12:07.877Z,3.75
2023-05-24T21:14:38.406Z,4.63
2023-05-24T21:17:08.829Z,2.78
2023-05-24T21:19:39.154Z,3.50
2023-05-24T21:22:09.716Z,4.60
2023-05-24T21:24:40.184Z,6.40
2023-05-24T21:27:11.016Z,3.45
2023-05-24T21:29:43.238Z,2.85
2023-05-24T21:32:32.026Z,4.75
2023-05-24T21:35:02.706Z,2.80
2023-05-24T21:37:33.169Z,4.53
2023-05-24T21:40:03.600Z,3.33
2023-05-24T21:42:34.170Z,4.70
2023-05-24T21:45:04.432Z,4.00
2023-05-24T21:47:36.885Z,4.60
2023-05-24T21:50:07.755Z,3.53
2023-05-24T21:52:38.212Z,2.88
2023-05-24T21:55:09.002Z,4.05
2023-05-24T21:57:39.697Z,2.80
2023-05-24T22:00:10.813Z,3.25
2023-05-24T22:02:41.291Z,2.83
2023-05-24T22:05:12.073Z,2.75
2023-05-24T22:08:00.618Z,3.33
2023-05-24T22:10:31.342Z,3.60
2023-05-24T22:13:02.068Z,3.78
2023-05-24T22:15:32.838Z,5.10
2023-05-24T22:18:03.395Z,3.25
2023-05-24T22:20:34.098Z,4.57
2023-05-24T22:23:04.978Z,4.38
2023-05-24T22:25:35.431Z,3.47
2023-05-24T22:28:07.018Z,4.00
2023-05-24T22:30:38.694Z,3.13
2023-05-24T22:33:09.170Z,3.10
2023-05-24T22:35:39.591Z,3.08
2023-05-24T22:38:10.176Z,2.72
2023-05-24T22:40:43.543Z,2.92
2023-05-24T22:43:13.927Z,2.38
2023-05-24T22:45:44.707Z,2.53
2023-05-24T22:48:15.394Z,3.38
2023-05-24T22:50:45.835Z,3.63
2023-05-24T22:53:18.691Z,3.60
2023-05-24T22:55:49.317Z,3.30
2023-05-24T22:58:22.999Z,3.13
2023-05-24T23:00:53.849Z,4.03
2023-05-24T23:03:24.394Z,7.53
2023-05-24T23:05:55.310Z,5.82
2023-05-24T23:08:27.208Z,7.70
2023-05-24T23:10:59.661Z,6.03
2023-05-24T23:13:34.598Z,3.72
2023-05-24T23:16:06.875Z,5.90
2023-05-24T23:18:39.173Z,5.68
2023-05-24T23:23:42.604Z,6.53
2023-05-24T23:26:13.043Z,8.15
2023-05-24T23:28:44.804Z,6.22
2023-05-24T23:31:15.301Z,6.10
2023-05-24T23:33:45.853Z,7.38
2023-05-24T23:36:16.293Z,8.35
2023-05-24T23:38:47.188Z,6.65
2023-05-24T23:41:17.878Z,11.73
2023-05-24T23:43:48.351Z,7.03
2023-05-24T23:46:18.951Z,6.80
2023-05-24T23:48:49.436Z,10.60
2023-05-24T23:51:21.723Z,13.93
2023-05-24T23:53:52.298Z,9.95
2023-05-24T23:56:23.021Z,11.20
2023-05-24T23:58:54.581Z,7.30
